createdAt,value
2019-05-15T00:00:38.664Z,3.58
2019-05-15T00:03:08.850Z,3.40
2019-05-15T00:05:39.741Z,3.27
2019-05-15T00:08:09.860Z,3.27
2019-05-15T00:10:39.761Z,4.30
2019-05-15T00:13:09.621Z,4.87
2019-05-15T00:15:40.295Z,4.58
2019-05-15T00:18:10.274Z,4.15
2019-05-15T00:20:39.982Z,3.80
2019-05-15T00:23:11.240Z,5.05
2019-05-15T00:25:41.027Z,5.10
2019-05-15T00:28:12.340Z,4.90
2019-05-15T00:30:42.189Z,4.42
2019-05-15T00:33:12.834Z,5.85
2019-05-15T00:35:42.593Z,5.28
2019-05-15T00:38:12.362Z,7.03
2019-05-15T00:40:42.046Z,6.35
2019-05-15T00:43:11.879Z,5.35
2019-05-15T00:45:44.355Z,5.65
2019-05-15T00:48:12.947Z,6.17
2019-05-15T00:50:43.062Z,8.53
2019-05-15T00:53:12.778Z,7.92
2019-05-15T00:55:44.509Z,7.05
2019-05-15T00:58:14.273Z,9.95
2019-05-15T01:00:48.694Z,7.80
2019-05-15T01:03:18.456Z,6.30
2019-05-15T01:05:48.289Z,9.13
2019-05-15T01:08:19.191Z,7.05
2019-05-15T01:10:49.272Z,11.10
2019-05-15T01:13:19.154Z,7.97
2019-05-15T01:15:49.144Z,8.90
2019-05-15T01:18:19.005Z,8.00
2019-05-15T01:20:49.763Z,10.23
2019-05-15T01:23:20.910Z,7.60
2019-05-15T01:25:50.783Z,7.97
2019-05-15T01:28:23.105Z,7.72
2019-05-15T01:30:53.876Z,8.03
2019-05-15T01:33:23.832Z,8.55
2019-05-15T01:35:55.179Z,6.42
2019-05-15T01:38:27.915Z,7.22
2019-05-15T01:41:00.764Z,8.13
2019-05-15T01:43:30.562Z,7.67
2019-05-15T01:46:00.591Z,8.70
2019-05-15T01:48:30.304Z,8.23
2019-05-15T01:51:00.103Z,8.45
2019-05-15T01:53:29.916Z,7.75
2019-05-15T01:55:59.677Z,8.05
2019-05-15T01:58:29.526Z,6.40
2019-05-15T02:00:59.366Z,6.47
2019-05-15T02:03:30.202Z,5.50
2019-05-15T02:06:00.046Z,9.03
2019-05-15T02:08:29.902Z,7.22
2019-05-15T02:10:59.756Z,6.20
2019-05-15T02:13:30.991Z,7.28
2019-05-15T02:16:01.813Z,6.42
2019-05-15T02:18:31.521Z,6.15
2019-05-15T02:21:01.280Z,4.85
2019-05-15T02:23:31.098Z,5.95
2019-05-15T02:26:00.888Z,7.08
2019-05-15T02:28:32.154Z,5.92
2019-05-15T02:31:03.793Z,6.47
2019-05-15T02:33:33.190Z,6.08
2019-05-15T02:36:02.990Z,6.40
2019-05-15T02:38:33.003Z,6.12
2019-05-15T02:41:02.852Z,5.97
2019-05-15T02:43:33.677Z,5.90
2019-05-15T02:46:03.496Z,5.85
2019-05-15T02:48:33.186Z,7.03
2019-05-15T02:51:03.185Z,5.78
2019-05-15T02:53:32.887Z,7.37
2019-05-15T02:56:04.234Z,5.03
2019-05-15T02:58:34.010Z,5.33
2019-05-15T03:01:03.756Z,5.85
2019-05-15T03:03:33.443Z,5.87
2019-05-15T03:06:03.261Z,5.15
2019-05-15T03:08:33.079Z,5.03
2019-05-15T03:11:03.029Z,5.70
2019-05-15T03:13:32.818Z,6.15
2019-05-15T03:16:02.604Z,7.33
2019-05-15T03:18:32.312Z,7.37
2019-05-15T03:21:01.986Z,5.47
2019-05-15T03:23:32.858Z,5.60
2019-05-15T03:26:04.409Z,6.33
2019-05-15T03:28:34.444Z,3.80
2019-05-15T03:31:26.302Z,6.65
2019-05-15T03:33:44.290Z,5.42
2019-05-15T03:36:13.470Z,4.58
2019-05-15T03:38:40.010Z,5.45
2019-05-15T03:41:10.471Z,4.65
2019-05-15T03:43:40.433Z,3.92
2019-05-15T03:46:10.234Z,4.25
2019-05-15T03:48:40.551Z,5.37
2019-05-15T03:51:12.330Z,5.65
2019-05-15T03:53:42.087Z,4.87
2019-05-15T03:56:11.807Z,4.62
2019-05-15T03:58:41.493Z,4.55
2019-05-15T04:01:28.281Z,3.87
2019-05-15T04:03:44.188Z,5.62
2019-05-15T04:06:14.081Z,4.72
2019-05-15T04:08:43.781Z,4.65
2019-05-15T04:11:13.534Z,5.20
2019-05-15T04:13:43.305Z,5.65
2019-05-15T04:16:13.086Z,4.85
2019-05-15T04:18:42.860Z,4.70
2019-05-15T04:21:12.608Z,6.78
2019-05-15T04:23:42.967Z,5.28
2019-05-15T04:26:14.042Z,7.50
2019-05-15T04:28:49.512Z,5.45
2019-05-15T04:31:19.741Z,6.28
2019-05-15T04:33:49.622Z,6.97
2019-05-15T04:36:19.403Z,5.55
2019-05-15T04:38:49.903Z,5.55
2019-05-15T04:41:20.170Z,6.20
2019-05-15T04:43:50.024Z,5.95
2019-05-15T04:46:20.163Z,7.12
2019-05-15T04:48:50.533Z,6.08
2019-05-15T04:51:21.765Z,5.50
2019-05-15T04:53:51.534Z,6.85
2019-05-15T04:56:21.296Z,5.25
2019-05-15T04:58:51.286Z,5.72
2019-05-15T05:01:21.313Z,6.30
2019-05-15T05:03:51.099Z,5.95
2019-05-15T05:06:21.666Z,5.83
2019-05-15T05:08:51.433Z,5.35
2019-05-15T05:11:23.929Z,7.00
2019-05-15T05:13:52.998Z,5.75
2019-05-15T05:16:24.115Z,5.83
2019-05-15T05:18:53.874Z,6.67
2019-05-15T05:21:23.609Z,5.80
2019-05-15T05:23:53.401Z,7.33
2019-05-15T05:26:23.186Z,6.42
2019-05-15T05:28:55.256Z,6.90
2019-05-15T05:31:25.005Z,7.95
2019-05-15T05:33:54.769Z,6.05
2019-05-15T05:36:24.837Z,6.17
2019-05-15T05:38:54.755Z,6.45
2019-05-15T05:41:24.542Z,6.95
2019-05-15T05:43:54.322Z,6.95
2019-05-15T05:46:24.452Z,5.60
2019-05-15T05:48:54.236Z,6.92
2019-05-15T05:51:25.441Z,5.78
2019-05-15T05:53:55.235Z,5.55
2019-05-15T05:56:25.022Z,7.37
2019-05-15T05:58:54.797Z,5.45
2019-05-15T06:01:28.277Z,6.30
2019-05-15T06:03:58.286Z,6.35
2019-05-15T06:06:30.303Z,6.78
2019-05-15T06:08:59.991Z,8.05
2019-05-15T06:11:29.777Z,6.35
2019-05-15T06:13:59.481Z,7.53
2019-05-15T06:16:29.862Z,5.42
2019-05-15T06:18:59.613Z,5.97
2019-05-15T06:21:29.397Z,5.03
2019-05-15T06:24:04.588Z,4.90
2019-05-15T06:26:30.600Z,6.62
2019-05-15T06:29:00.299Z,5.72
2019-05-15T06:31:30.076Z,5.95
2019-05-15T06:34:02.315Z,5.65
2019-05-15T06:36:33.035Z,5.35
2019-05-15T06:39:08.333Z,5.42
2019-05-15T06:41:39.038Z,5.25
2019-05-15T06:44:09.209Z,4.78
2019-05-15T06:46:39.695Z,6.60
2019-05-15T06:49:09.480Z,4.45
2019-05-15T06:51:39.295Z,7.22
2019-05-15T06:54:09.069Z,4.87
2019-05-15T06:56:39.102Z,5.00
2019-05-15T06:59:09.102Z,5.90
2019-05-15T07:01:39.779Z,5.08
2019-05-15T07:04:09.474Z,6.70
2019-05-15T07:06:39.243Z,5.53
2019-05-15T07:09:09.412Z,4.45
2019-05-15T07:11:39.497Z,4.20
2019-05-15T07:14:10.235Z,5.12
2019-05-15T07:16:39.920Z,5.85
2019-05-15T07:19:09.861Z,6.55
2019-05-15T07:21:39.627Z,4.60
2019-05-15T07:24:09.416Z,7.72
2019-05-15T07:26:39.414Z,5.47
2019-05-15T07:29:09.262Z,5.37
2019-05-15T07:31:39.074Z,5.42
2019-05-15T07:34:09.825Z,6.22
2019-05-15T07:36:39.997Z,6.42
2019-05-15T07:39:09.820Z,5.58
2019-05-15T07:41:39.586Z,6.70
2019-05-15T07:44:09.372Z,7.12
2019-05-15T07:46:39.215Z,8.68
2019-05-15T07:49:09.240Z,7.45
2019-05-15T07:51:40.161Z,8.45
2019-05-15T07:54:09.945Z,10.43
2019-05-15T07:56:39.783Z,10.38
2019-05-15T07:59:09.671Z,9.08
2019-05-15T08:01:39.460Z,9.58
2019-05-15T08:04:25.096Z,11.95
2019-05-15T08:06:40.744Z,10.40
2019-05-15T08:09:11.274Z,9.25
2019-05-15T08:11:41.086Z,10.75
2019-05-15T08:14:10.876Z,9.93
2019-05-15T08:16:40.662Z,12.45
2019-05-15T08:19:10.475Z,11.60
2019-05-15T08:21:40.277Z,10.70
2019-05-15T08:24:10.074Z,10.43
2019-05-15T08:26:44.844Z,9.38
2019-05-15T08:29:11.414Z,9.78
2019-05-15T08:31:41.213Z,9.58
2019-05-15T08:34:16.010Z,9.08
2019-05-15T08:36:42.362Z,10.55
2019-05-15T08:39:12.231Z,8.83
2019-05-15T08:41:42.050Z,9.65
2019-05-15T08:44:11.748Z,8.98
2019-05-15T08:46:44.218Z,9.05
2019-05-15T08:49:13.003Z,10.80
2019-05-15T08:51:42.835Z,11.83
2019-05-15T08:54:12.632Z,8.25
2019-05-15T08:56:42.405Z,11.35
2019-05-15T08:59:12.227Z,8.73
2019-05-15T09:01:42.043Z,12.37
2019-05-15T09:04:26.104Z,9.98
2019-05-15T09:06:43.345Z,9.43
2019-05-15T09:09:13.094Z,9.95
2019-05-15T09:11:42.991Z,9.63
2019-05-15T09:14:12.773Z,9.20
2019-05-15T09:16:42.597Z,7.40
2019-05-15T09:19:12.432Z,9.00
2019-05-15T09:21:42.194Z,9.23
2019-05-15T09:24:12.105Z,7.97
2019-05-15T09:26:41.838Z,10.30
2019-05-15T09:29:11.610Z,12.33
2019-05-15T09:31:41.445Z,10.00
2019-05-15T09:34:11.236Z,14.13
2019-05-15T09:36:44.946Z,7.83
2019-05-15T09:39:13.477Z,8.30
2019-05-15T09:41:44.535Z,11.12
2019-05-15T09:44:14.345Z,9.55
2019-05-15T09:46:44.146Z,7.50
2019-05-15T09:49:13.926Z,8.93
2019-05-15T09:51:43.758Z,9.48
2019-05-15T09:54:13.534Z,9.73
2019-05-15T09:56:43.349Z,9.90
2019-05-15T09:59:13.119Z,8.50
2019-05-15T10:01:42.861Z,9.75
2019-05-15T10:04:12.618Z,9.33
2019-05-15T10:06:42.544Z,9.03
2019-05-15T10:09:12.310Z,7.65
2019-05-15T10:11:42.107Z,9.13
2019-05-15T10:14:11.955Z,8.18
2019-05-15T10:16:41.741Z,11.12
2019-05-15T10:19:11.529Z,7.03
2019-05-15T10:21:41.354Z,7.30
2019-05-15T10:24:11.153Z,7.83
2019-05-15T10:26:40.974Z,8.25
2019-05-15T10:29:11.731Z,7.78
2019-05-15T10:31:41.467Z,7.70
2019-05-15T10:34:11.240Z,8.45
2019-05-15T10:36:41.125Z,8.15
2019-05-15T10:39:11.015Z,6.97
2019-05-15T10:41:40.900Z,8.85
2019-05-15T10:44:10.671Z,5.55
2019-05-15T10:46:40.424Z,8.20
2019-05-15T10:49:10.741Z,12.18
2019-05-15T10:51:40.503Z,7.40
2019-05-15T10:54:10.292Z,8.20
2019-05-15T10:56:40.157Z,5.78
2019-05-15T10:59:09.920Z,7.80
2019-05-15T11:01:39.699Z,9.75
2019-05-15T11:04:09.534Z,9.13
2019-05-15T11:06:39.382Z,7.47
2019-05-15T11:09:09.168Z,7.15
2019-05-15T11:11:38.905Z,6.78
2019-05-15T11:14:09.386Z,8.85
2019-05-15T11:16:40.271Z,9.35
2019-05-15T11:19:10.093Z,8.65
2019-05-15T11:21:43.361Z,8.10
2019-05-15T11:24:12.366Z,5.30
2019-05-15T11:26:42.242Z,5.80
2019-05-15T11:29:12.093Z,8.83
2019-05-15T11:31:41.898Z,6.20
2019-05-15T11:34:11.662Z,6.72
2019-05-15T11:36:41.449Z,7.50
2019-05-15T11:39:11.280Z,7.33
2019-05-15T11:41:40.990Z,9.45
2019-05-15T11:44:10.802Z,7.60
2019-05-15T11:46:40.588Z,8.88
2019-05-15T11:49:10.346Z,6.85
2019-05-15T11:51:40.132Z,5.75
2019-05-15T11:54:10.925Z,6.28
2019-05-15T11:56:40.831Z,5.58
2019-05-15T11:59:10.672Z,8.78
2019-05-15T12:01:40.436Z,7.95
2019-05-15T12:04:10.245Z,8.20
2019-05-15T12:06:39.975Z,9.25
2019-05-15T12:09:09.755Z,8.35
2019-05-15T12:11:40.920Z,8.18
2019-05-15T12:14:10.955Z,7.58
2019-05-15T12:16:40.806Z,5.67
2019-05-15T12:19:17.022Z,6.67
2019-05-15T12:21:42.040Z,7.30
2019-05-15T12:24:11.848Z,7.12
2019-05-15T12:26:41.613Z,9.70
2019-05-15T12:29:11.448Z,9.53
2019-05-15T12:31:41.206Z,7.37
2019-05-15T12:34:11.125Z,8.48
2019-05-15T12:36:52.142Z,7.03
2019-05-15T12:39:13.778Z,8.15
2019-05-15T13:02:08.191Z,10.38
2019-05-15T13:04:38.979Z,7.35
2019-05-15T13:07:13.768Z,8.33
2019-05-15T13:09:41.436Z,7.60
2019-05-15T13:12:11.178Z,8.38
2019-05-15T13:14:40.952Z,9.48
2019-05-15T13:17:10.762Z,8.95
2019-05-15T13:19:40.536Z,13.15
2019-05-15T13:22:17.967Z,9.60
2019-05-15T13:24:41.751Z,8.23
2019-05-15T13:27:11.552Z,9.98
2019-05-15T13:29:41.359Z,12.53
2019-05-15T13:32:11.132Z,12.33
2019-05-15T13:34:40.936Z,10.23
2019-05-15T13:37:10.731Z,12.82
2019-05-15T13:39:40.567Z,10.13
2019-05-15T13:42:10.320Z,10.25
2019-05-15T13:44:40.214Z,12.20
2019-05-15T13:47:10.039Z,8.78
2019-05-15T13:49:39.807Z,10.82
2019-05-15T13:52:09.625Z,9.28
2019-05-15T13:54:39.415Z,11.88
2019-05-15T13:57:09.215Z,9.73
2019-05-15T13:59:39.316Z,13.18
2019-05-15T14:02:09.337Z,11.20
2019-05-15T14:04:39.130Z,9.23
2019-05-15T14:07:08.929Z,10.85
2019-05-15T14:09:44.292Z,11.50
2019-05-15T14:12:12.285Z,13.98
2019-05-15T14:14:42.689Z,11.65
2019-05-15T14:17:12.480Z,10.05
2019-05-15T14:19:43.299Z,14.10
2019-05-15T14:22:13.287Z,11.00
2019-05-15T14:24:43.097Z,11.33
2019-05-15T14:27:12.890Z,10.95
2019-05-15T14:29:42.663Z,10.00
2019-05-15T14:32:12.458Z,9.45
2019-05-15T14:34:42.233Z,8.23
2019-05-15T14:37:12.020Z,8.83
2019-05-15T14:39:41.785Z,8.10
2019-05-15T14:42:11.644Z,9.60
2019-05-15T14:44:41.456Z,7.58
2019-05-15T14:47:11.448Z,7.72
2019-05-15T14:49:44.464Z,5.45
2019-05-15T14:52:12.650Z,6.12
2019-05-15T14:54:42.502Z,5.15
2019-05-15T14:57:12.306Z,5.45
2019-05-15T14:59:42.126Z,6.80
2019-05-15T15:02:11.918Z,5.10
2019-05-15T15:04:41.684Z,5.40
2019-05-15T15:07:11.482Z,5.47
2019-05-15T15:09:41.296Z,6.67
2019-05-15T15:12:11.081Z,5.05
2019-05-15T15:14:41.168Z,5.72
2019-05-15T15:17:10.993Z,6.30
2019-05-15T15:19:40.832Z,5.70
2019-05-15T15:22:10.667Z,7.42
2019-05-15T15:24:40.457Z,5.10
2019-05-15T15:27:10.232Z,7.58
2019-05-15T15:29:40.158Z,6.33
2019-05-15T15:32:09.933Z,5.35
2019-05-15T15:34:39.709Z,5.75
2019-05-15T15:37:10.578Z,6.12
2019-05-15T15:39:40.375Z,5.15
2019-05-15T15:42:10.475Z,6.53
2019-05-15T15:44:40.277Z,9.03
2019-05-15T15:47:10.084Z,4.97
2019-05-15T15:49:39.881Z,7.00
2019-05-15T15:52:09.659Z,6.87
2019-05-15T15:54:39.768Z,5.47
2019-05-15T15:57:10.328Z,5.80
2019-05-15T15:59:40.170Z,6.47
2019-05-15T16:02:09.949Z,5.65
2019-05-15T16:04:39.753Z,5.45
2019-05-15T16:07:09.811Z,5.45
2019-05-15T16:09:39.741Z,6.92
2019-05-15T16:12:09.949Z,7.47
2019-05-15T16:14:39.746Z,5.12
2019-05-15T16:17:09.538Z,7.05
2019-05-15T16:19:39.390Z,6.78
2019-05-15T16:22:09.288Z,8.08
2019-05-15T16:24:39.128Z,7.85
2019-05-15T16:27:09.819Z,7.90
2019-05-15T16:29:40.817Z,5.90
2019-05-15T16:32:29.967Z,10.30
2019-05-15T16:34:59.769Z,9.23
2019-05-15T16:37:29.876Z,7.00
2019-05-15T16:40:00.055Z,6.58
2019-05-15T16:42:30.062Z,5.95
2019-05-15T16:44:59.868Z,6.90
2019-05-15T16:47:29.707Z,5.70
2019-05-15T16:49:59.529Z,5.22
2019-05-15T16:52:30.883Z,6.62
2019-05-15T16:55:01.191Z,6.25
2019-05-15T16:57:31.057Z,8.50
2019-05-15T17:00:00.980Z,7.95
2019-05-15T17:02:36.780Z,5.45
2019-05-15T17:05:08.693Z,5.60
2019-05-15T17:07:39.155Z,4.37
2019-05-15T17:10:09.212Z,6.37
2019-05-15T17:12:39.286Z,6.72
2019-05-15T17:15:10.131Z,5.67
2019-05-15T17:17:40.401Z,6.80
2019-05-15T17:20:11.704Z,6.20
2019-05-15T17:22:41.511Z,5.53
2019-05-15T17:25:11.398Z,4.80
2019-05-15T17:27:42.297Z,5.17
2019-05-15T17:30:12.191Z,5.72
2019-05-15T17:32:41.998Z,4.83
2019-05-15T17:35:12.158Z,4.65
2019-05-15T17:37:41.921Z,4.75
2019-05-15T17:40:12.303Z,4.12
2019-05-15T17:42:42.271Z,4.10
2019-05-15T17:45:12.469Z,6.30
2019-05-15T17:47:42.292Z,4.40
2019-05-15T17:50:12.753Z,3.87
2019-05-15T17:52:42.547Z,8.35
2019-05-15T17:55:13.891Z,5.00
2019-05-15T17:57:43.713Z,6.42
2019-05-15T18:00:14.223Z,4.45
2019-05-15T18:02:44.259Z,3.70
2019-05-15T18:05:14.732Z,4.10
2019-05-15T18:07:44.532Z,4.33
2019-05-15T18:10:14.450Z,6.80
2019-05-15T18:12:44.222Z,5.17
2019-05-15T18:15:14.256Z,3.67
2019-05-15T18:17:44.064Z,4.92
2019-05-15T18:20:33.478Z,5.70
2019-05-15T18:23:03.285Z,6.55
2019-05-15T18:25:33.089Z,6.72
2019-05-15T18:28:02.896Z,4.87
2019-05-15T18:30:32.707Z,5.55
2019-05-15T18:33:02.479Z,6.70
2019-05-15T18:35:32.968Z,5.12
2019-05-15T18:38:03.083Z,10.32
2019-05-15T18:40:32.899Z,6.28
2019-05-15T18:43:02.698Z,9.23
2019-05-15T18:45:32.572Z,8.35
2019-05-15T18:48:02.515Z,4.20
2019-05-15T18:50:32.320Z,4.95
2019-05-15T18:53:02.166Z,4.17
2019-05-15T18:55:31.917Z,5.65
2019-05-15T18:58:01.730Z,7.20
2019-05-15T19:00:31.755Z,7.50
2019-05-15T19:03:01.571Z,5.95
2019-05-15T19:05:31.361Z,6.67
2019-05-15T19:08:01.132Z,8.10
2019-05-15T19:10:30.946Z,6.65
2019-05-15T19:13:00.732Z,8.20
2019-05-15T19:15:30.539Z,4.60
2019-05-15T19:18:00.666Z,5.12
2019-05-15T19:20:31.863Z,6.35
2019-05-15T19:23:01.895Z,6.50
2019-05-15T19:25:31.670Z,7.83
2019-05-15T19:28:01.464Z,8.13
2019-05-15T19:30:31.348Z,5.85
2019-05-15T19:33:01.536Z,5.28
2019-05-15T19:35:31.362Z,5.42
2019-05-15T19:38:01.129Z,4.72
2019-05-15T19:40:31.064Z,7.30
2019-05-15T19:43:03.901Z,6.78
2019-05-15T19:45:32.283Z,6.50
2019-05-15T19:48:02.416Z,9.90
2019-05-15T19:50:32.195Z,4.40
2019-05-15T19:53:02.021Z,5.22
2019-05-15T19:55:31.823Z,4.55
2019-05-15T19:58:08.660Z,6.92
2019-05-15T20:00:38.846Z,7.05
2019-05-15T20:03:09.152Z,8.50
2019-05-15T20:05:38.942Z,5.42
2019-05-15T20:08:08.721Z,4.97
2019-05-15T20:10:39.246Z,5.25
2019-05-15T20:13:09.275Z,4.15
2019-05-15T20:15:39.096Z,4.87
2019-05-15T20:18:10.385Z,4.08
2019-05-15T20:20:40.273Z,5.83
2019-05-15T20:23:10.147Z,4.95
2019-05-15T20:25:40.080Z,5.33
2019-05-15T20:28:09.895Z,3.98
2019-05-15T20:30:39.683Z,4.50
2019-05-15T20:33:09.531Z,5.00
2019-05-15T20:35:39.318Z,7.60
2019-05-15T20:38:09.168Z,6.80
2019-05-15T20:40:39.053Z,5.72
2019-05-15T20:43:08.893Z,4.50
2019-05-15T20:45:38.710Z,3.62
2019-05-15T20:48:08.946Z,4.78
2019-05-15T20:50:40.842Z,6.87
2019-05-15T20:53:10.613Z,4.40
2019-05-15T20:55:40.436Z,4.58
2019-05-15T20:58:10.430Z,5.37
2019-05-15T21:00:41.078Z,4.03
2019-05-15T21:03:10.988Z,6.83
2019-05-15T21:05:41.175Z,3.08
2019-05-15T21:08:12.556Z,3.83
2019-05-15T21:10:43.128Z,4.42
2019-05-15T21:13:13.157Z,6.22
2019-05-15T21:15:43.055Z,9.38
2019-05-15T21:18:16.842Z,5.92
2019-05-15T21:20:44.276Z,4.47
2019-05-15T21:23:14.074Z,5.67
2019-05-15T21:25:43.930Z,5.60
2019-05-15T21:28:13.754Z,3.77
2019-05-15T21:30:44.666Z,3.62
2019-05-15T21:33:14.486Z,5.58
2019-05-15T21:35:44.298Z,3.05
2019-05-15T21:38:14.071Z,4.58
2019-05-15T21:40:43.857Z,5.47
2019-05-15T21:43:13.686Z,5.25
2019-05-15T21:45:43.513Z,5.20
2019-05-15T21:48:13.289Z,4.08
2019-05-15T21:50:43.083Z,5.53
2019-05-15T21:53:13.045Z,5.22
2019-05-15T21:55:42.873Z,7.60
2019-05-15T21:58:12.677Z,6.67
2019-05-15T22:00:45.542Z,4.17
2019-05-15T22:03:19.485Z,4.92
2019-05-15T22:05:48.796Z,4.33
2019-05-15T22:08:18.516Z,6.45
2019-05-15T22:10:48.371Z,4.35
2019-05-15T22:13:18.642Z,4.67
2019-05-15T22:15:50.133Z,5.33
2019-05-15T22:18:21.541Z,5.90
2019-05-15T22:20:51.361Z,5.58
2019-05-15T22:23:21.461Z,4.25
2019-05-15T22:25:51.548Z,6.55
2019-05-15T22:28:21.409Z,3.92
2019-05-15T22:30:51.218Z,4.20
2019-05-15T22:33:21.094Z,4.05
2019-05-15T22:35:50.894Z,4.30
2019-05-15T22:38:20.708Z,4.12
2019-05-15T22:40:50.598Z,5.05
2019-05-15T22:43:20.374Z,3.98
2019-05-15T22:45:50.153Z,4.12
2019-05-15T22:48:21.517Z,5.35
2019-05-15T22:50:51.298Z,6.35
2019-05-15T22:53:21.119Z,5.47
2019-05-15T22:55:51.255Z,4.28
2019-05-15T22:58:21.028Z,3.12
2019-05-15T23:00:52.381Z,6.65
2019-05-15T23:03:22.162Z,5.05
2019-05-15T23:05:51.965Z,5.12
2019-05-15T23:08:21.742Z,4.17
2019-05-15T23:10:51.555Z,4.83
2019-05-15T23:13:21.378Z,3.72
2019-05-15T23:15:51.199Z,5.95
2019-05-15T23:18:21.081Z,5.00
2019-05-15T23:20:50.861Z,4.62
2019-05-15T23:23:20.679Z,5.37
2019-05-15T23:25:50.461Z,3.55
2019-05-15T23:28:39.537Z,4.45
2019-05-15T23:31:09.716Z,4.58
2019-05-15T23:33:39.492Z,3.37
2019-05-15T23:36:09.313Z,4.53
2019-05-15T23:38:40.097Z,3.87
2019-05-15T23:41:09.877Z,2.15
2019-05-15T23:43:39.646Z,3.55
2019-05-15T23:46:09.457Z,2.98
2019-05-15T23:48:39.223Z,2.70
2019-05-15T23:51:09.043Z,2.75
2019-05-15T23:53:38.836Z,2.77
2019-05-15T23:56:10.111Z,4.12
2019-05-15T23:58:39.875Z,2.85
